createdAt,value
2023-11-02T00:02:29.479Z,1.60
2023-11-02T00:04:58.676Z,1.90
2023-11-02T00:07:32.326Z,1.83
2023-11-02T00:10:00.371Z,1.70
2023-11-02T00:12:29.758Z,1.50
2023-11-02T00:15:01.253Z,1.50
2023-11-02T00:17:51.944Z,1.55
2023-11-02T00:20:41.111Z,2.47
2023-11-02T00:23:10.510Z,1.58
2023-11-02T00:25:57.337Z,1.65
2023-11-02T00:28:25.678Z,1.77
2023-11-02T00:30:54.260Z,1.83
2023-11-02T00:33:23.208Z,1.80
2023-11-02T00:35:53.128Z,1.83
2023-11-02T00:38:27.876Z,1.80
2023-11-02T00:40:57.290Z,1.67
2023-11-02T00:43:26.109Z,1.80
2023-11-02T00:45:54.590Z,1.50
2023-11-02T00:48:24.212Z,1.98
2023-11-02T00:51:15.136Z,1.30
2023-11-02T00:53:47.776Z,1.70
2023-11-02T00:56:18.106Z,2.25
2023-11-02T00:58:48.903Z,1.67
2023-11-02T01:01:18.909Z,2.03
2023-11-02T01:03:50.246Z,1.60
2023-11-02T01:06:21.096Z,1.77
2023-11-02T01:09:05.897Z,1.90
2023-11-02T01:11:36.639Z,1.55
2023-11-02T01:14:14.272Z,1.55
2023-11-02T01:16:43.340Z,1.95
2023-11-02T01:19:37.923Z,2.72
2023-11-02T01:22:06.141Z,1.52
2023-11-02T01:24:41.010Z,1.67
2023-11-02T01:27:12.192Z,1.08
2023-11-02T01:29:39.937Z,1.95
2023-11-02T01:32:09.158Z,2.10
2023-11-02T01:34:39.336Z,1.40
2023-11-02T01:37:07.215Z,1.55
2023-11-02T01:40:11.477Z,2.03
2023-11-02T01:42:44.232Z,1.50
2023-11-02T01:45:14.077Z,1.60
2023-11-02T01:48:06.798Z,1.80
2023-11-02T01:50:36.965Z,1.50
2023-11-02T01:53:26.294Z,1.67
2023-11-02T01:56:15.895Z,1.38
2023-11-02T01:59:03.943Z,1.33
2023-11-02T02:01:36.390Z,1.40
2023-11-02T02:04:09.734Z,1.50
2023-11-02T02:06:47.686Z,2.58
2023-11-02T02:09:28.538Z,1.25
2023-11-02T02:12:08.958Z,1.35
2023-11-02T02:14:57.346Z,1.98
2023-11-02T02:17:35.236Z,1.80
2023-11-02T02:20:09.020Z,1.17
2023-11-02T02:22:44.907Z,1.38
2023-11-02T02:25:20.753Z,1.50
2023-11-02T02:28:27.279Z,1.17
2023-11-02T02:31:15.119Z,1.48
2023-11-02T02:34:22.782Z,1.90
2023-11-02T02:37:04.764Z,1.15
2023-11-02T02:39:39.536Z,1.67
2023-11-02T02:42:09.361Z,2.00
2023-11-02T02:44:40.467Z,1.38
2023-11-02T02:47:11.220Z,1.45
2023-11-02T02:49:44.234Z,1.80
2023-11-02T02:52:19.146Z,1.55
2023-11-02T02:54:51.296Z,1.88
2023-11-02T02:57:20.930Z,1.60
2023-11-02T02:59:53.992Z,1.75
2023-11-02T03:02:25.232Z,1.40
2023-11-02T03:04:56.904Z,1.63
2023-11-02T03:07:30.526Z,1.80
2023-11-02T03:10:02.002Z,2.00
2023-11-02T03:12:35.304Z,1.67
2023-11-02T03:15:07.531Z,1.52
2023-11-02T03:17:51.155Z,2.10
2023-11-02T03:20:19.922Z,1.60
2023-11-02T03:22:49.609Z,1.50
2023-11-02T03:25:25.990Z,1.42
2023-11-02T03:28:08.860Z,1.50
2023-11-02T03:30:48.689Z,1.58
2023-11-02T03:33:31.984Z,1.60
2023-11-02T03:36:07.359Z,1.52
2023-11-02T03:38:52.937Z,1.30
2023-11-02T03:41:28.137Z,1.35
2023-11-02T03:44:04.565Z,1.30
2023-11-02T03:46:46.983Z,1.35
2023-11-02T03:49:25.213Z,1.48
2023-11-02T03:52:15.590Z,1.30
2023-11-02T03:55:05.867Z,1.17
2023-11-02T03:57:40.705Z,0.90
2023-11-02T04:00:14.093Z,1.08
2023-11-02T04:02:47.733Z,1.48
2023-11-02T04:05:21.669Z,1.38
2023-11-02T04:07:59.379Z,1.35
2023-11-02T04:10:30.615Z,1.40
2023-11-02T04:13:06.555Z,1.23
2023-11-02T04:15:34.559Z,1.10
2023-11-02T04:18:02.477Z,1.52
2023-11-02T04:20:30.484Z,1.08
2023-11-02T04:22:59.288Z,0.93
2023-11-02T04:25:28.588Z,1.33
2023-11-02T04:27:56.824Z,0.93
2023-11-02T04:30:25.679Z,1.00
2023-11-02T04:32:53.839Z,1.40
2023-11-02T04:35:21.751Z,0.77
2023-11-02T04:38:04.689Z,1.10
2023-11-02T04:40:34.344Z,1.20
2023-11-02T04:43:02.875Z,1.15
2023-11-02T04:45:31.185Z,1.55
2023-11-02T04:48:00.071Z,1.17
2023-11-02T04:50:32.094Z,1.50
2023-11-02T04:53:00.916Z,0.77
2023-11-02T04:55:28.786Z,0.90
2023-11-02T04:57:57.906Z,0.90
2023-11-02T05:00:25.855Z,0.60
2023-11-02T05:02:53.680Z,1.10
2023-11-02T05:05:21.699Z,1.08
2023-11-02T05:07:49.835Z,0.88
2023-11-02T05:10:17.948Z,0.80
2023-11-02T05:12:46.490Z,0.70
2023-11-02T05:15:16.159Z,0.65
2023-11-02T05:17:44.066Z,1.00
2023-11-02T05:20:13.133Z,1.13
2023-11-02T05:22:41.065Z,0.93
2023-11-02T05:25:09.917Z,1.30
2023-11-02T05:27:37.792Z,0.98
2023-11-02T05:30:07.445Z,0.82
2023-11-02T05:32:39.231Z,1.20
2023-11-02T05:35:10.500Z,1.00
2023-11-02T05:37:38.714Z,0.90
2023-11-02T05:40:08.114Z,1.00
2023-11-02T05:42:36.333Z,1.10
2023-11-02T05:45:04.770Z,1.10
2023-11-02T05:47:32.777Z,1.15
2023-11-02T05:50:02.834Z,1.38
2023-11-02T05:52:30.706Z,0.93
2023-11-02T05:54:58.541Z,0.70
2023-11-02T05:57:26.350Z,1.00
2023-11-02T05:59:54.193Z,0.98
2023-11-02T06:02:22.057Z,1.23
2023-11-02T06:04:49.977Z,1.20
2023-11-02T06:07:19.152Z,1.23
2023-11-02T06:09:47.049Z,1.02
2023-11-02T06:12:14.980Z,1.30
2023-11-02T06:14:42.765Z,1.10
2023-11-02T06:17:10.940Z,1.30
2023-11-02T06:19:38.848Z,1.40
2023-11-02T06:22:06.675Z,1.45
2023-11-02T06:24:38.782Z,1.65
2023-11-02T06:27:07.513Z,1.70
2023-11-02T06:29:35.930Z,1.67
2023-11-02T06:32:05.186Z,1.90
2023-11-02T06:34:37.502Z,1.20
2023-11-02T06:37:08.162Z,1.20
2023-11-02T06:39:38.112Z,1.08
2023-11-02T06:42:06.555Z,1.25
2023-11-02T06:44:34.400Z,0.95
2023-11-02T06:47:02.578Z,1.40
2023-11-02T06:49:30.616Z,1.30
2023-11-02T06:52:00.870Z,1.05
2023-11-02T06:54:29.031Z,1.15
2023-11-02T06:56:58.707Z,0.90
2023-11-02T06:59:26.783Z,1.30
2023-11-02T07:01:55.926Z,1.42
2023-11-02T07:04:24.074Z,1.40
2023-11-02T07:06:52.058Z,0.93
2023-11-02T07:09:20.171Z,1.92
2023-11-02T07:11:48.032Z,1.17
2023-11-02T07:14:17.268Z,1.58
2023-11-02T07:16:45.631Z,1.40
2023-11-02T07:19:13.516Z,1.05
2023-11-02T07:21:41.682Z,1.20
2023-11-02T07:24:09.737Z,1.23
2023-11-02T07:26:40.563Z,1.40
2023-11-02T07:29:08.338Z,0.90
2023-11-02T07:31:41.504Z,1.25
2023-11-02T07:34:09.533Z,1.25
2023-11-02T07:36:37.630Z,1.08
2023-11-02T07:39:06.229Z,1.25
2023-11-02T07:41:34.426Z,1.27
2023-11-02T07:44:02.285Z,1.00
2023-11-02T07:46:30.212Z,1.10
2023-11-02T07:48:59.628Z,1.25
2023-11-02T07:51:27.483Z,1.02
2023-11-02T07:53:55.289Z,1.25
2023-11-02T07:56:23.172Z,1.23
2023-11-02T07:58:51.015Z,1.63
2023-11-02T08:01:20.128Z,1.17
2023-11-02T08:03:48.013Z,0.95
2023-11-02T08:06:17.267Z,0.65
2023-11-02T08:08:45.675Z,1.52
2023-11-02T08:11:13.909Z,1.08
2023-11-02T08:13:41.916Z,0.90
2023-11-02T08:16:10.963Z,1.40
2023-11-02T08:18:38.811Z,1.15
2023-11-02T08:21:11.067Z,0.88
2023-11-02T08:23:40.347Z,1.40
2023-11-02T08:26:08.091Z,0.80
2023-11-02T08:28:35.863Z,0.60
2023-11-02T08:31:03.740Z,1.10
2023-11-02T08:33:31.769Z,1.33
2023-11-02T08:35:59.904Z,1.30
2023-11-02T08:38:27.755Z,1.02
2023-11-02T08:40:56.858Z,2.00
2023-11-02T08:43:24.852Z,1.20
2023-11-02T08:45:52.990Z,1.52
2023-11-02T08:48:21.746Z,1.20
2023-11-02T08:50:49.575Z,1.10
2023-11-02T08:53:17.500Z,0.60
2023-11-02T08:55:46.414Z,1.00
2023-11-02T08:58:15.605Z,1.30
2023-11-02T09:00:43.429Z,0.98
2023-11-02T09:03:11.414Z,1.27
2023-11-02T09:05:39.331Z,1.20
2023-11-02T09:08:07.186Z,0.93
2023-11-02T09:10:35.026Z,0.70
2023-11-02T09:13:03.403Z,1.10
2023-11-02T09:15:32.723Z,1.27
2023-11-02T09:18:00.588Z,1.00
2023-11-02T09:20:28.520Z,0.90
2023-11-02T09:22:57.243Z,0.65
2023-11-02T09:25:25.011Z,1.05
2023-11-02T09:27:53.176Z,0.98
2023-11-02T09:30:21.083Z,0.90
2023-11-02T09:32:50.326Z,0.63
2023-11-02T09:35:18.331Z,0.88
2023-11-02T09:37:47.668Z,0.88
2023-11-02T09:40:17.903Z,0.75
2023-11-02T09:42:46.701Z,0.80
2023-11-02T09:45:15.830Z,0.88
2023-11-02T09:47:44.248Z,0.85
2023-11-02T09:50:13.807Z,0.60
2023-11-02T09:52:42.423Z,1.38
2023-11-02T09:55:12.042Z,1.15
2023-11-02T09:57:40.429Z,1.02
2023-11-02T10:00:10.132Z,0.57
2023-11-02T10:02:42.080Z,0.82
2023-11-02T10:05:11.696Z,1.02
2023-11-02T10:07:41.081Z,0.88
2023-11-02T10:10:10.958Z,0.80
2023-11-02T10:12:39.774Z,0.90
2023-11-02T10:15:11.065Z,0.73
2023-11-02T10:17:39.528Z,1.17
2023-11-02T10:20:11.324Z,0.70
2023-11-02T10:22:40.711Z,1.17
2023-11-02T10:25:09.296Z,0.85
2023-11-02T10:27:40.045Z,0.80
2023-11-02T10:30:09.891Z,0.90
2023-11-02T10:32:39.607Z,0.90
2023-11-02T10:35:08.776Z,1.30
2023-11-02T10:37:41.096Z,0.63
2023-11-02T10:40:11.458Z,0.85
2023-11-02T10:42:40.968Z,0.80
2023-11-02T10:45:14.262Z,1.02
2023-11-02T10:47:43.743Z,0.98
2023-11-02T10:50:15.047Z,0.80
2023-11-02T10:52:47.344Z,0.82
2023-11-02T10:55:23.859Z,1.30
2023-11-02T10:57:52.322Z,0.73
2023-11-02T11:00:21.686Z,0.85
2023-11-02T11:02:51.697Z,0.80
2023-11-02T11:05:19.868Z,0.82
2023-11-02T11:07:53.542Z,1.00
2023-11-02T11:10:23.200Z,0.82
2023-11-02T11:12:53.576Z,0.85
2023-11-02T11:15:24.229Z,1.00
2023-11-02T11:17:52.832Z,0.70
2023-11-02T11:20:21.636Z,0.85
2023-11-02T11:22:53.064Z,1.00
2023-11-02T11:25:22.493Z,0.98
2023-11-02T11:27:51.745Z,0.75
2023-11-02T11:30:39.242Z,0.88
2023-11-02T11:33:39.783Z,0.77
2023-11-02T11:36:21.018Z,1.20
2023-11-02T11:38:48.913Z,0.80
2023-11-02T11:41:47.150Z,0.90
2023-11-02T11:44:19.906Z,1.02
2023-11-02T11:46:51.781Z,1.07
2023-11-02T11:49:46.328Z,0.85
2023-11-02T11:52:25.678Z,0.83
2023-11-02T11:54:55.127Z,1.48
2023-11-02T11:57:58.519Z,1.17
2023-11-02T12:00:28.889Z,1.00
2023-11-02T12:02:59.527Z,0.82
2023-11-02T12:05:58.219Z,1.10
2023-11-02T12:08:27.122Z,1.70
2023-11-02T12:10:58.493Z,1.00
2023-11-02T12:13:28.469Z,1.15
2023-11-02T12:16:01.465Z,0.77
2023-11-02T12:18:31.139Z,0.80
2023-11-02T12:21:00.752Z,1.27
2023-11-02T12:23:33.041Z,1.40
2023-11-02T12:26:01.421Z,0.93
2023-11-02T12:28:40.577Z,1.20
2023-11-02T12:31:08.872Z,1.10
2023-11-02T12:33:38.226Z,1.27
2023-11-02T12:36:08.089Z,1.20
2023-11-02T12:38:36.697Z,0.93
2023-11-02T12:41:06.036Z,0.77
2023-11-02T12:43:40.746Z,1.73
2023-11-02T12:46:10.265Z,1.30
2023-11-02T12:48:40.582Z,1.55
2023-11-02T12:51:19.663Z,1.15
2023-11-02T12:53:49.104Z,1.10
2023-11-02T12:56:26.437Z,1.00
2023-11-02T12:59:05.558Z,1.48
2023-11-02T13:01:48.204Z,1.00
2023-11-02T13:04:17.024Z,1.75
2023-11-02T13:06:45.194Z,1.10
2023-11-02T13:09:14.594Z,1.05
2023-11-02T13:11:45.194Z,1.08
2023-11-02T13:14:19.664Z,1.25
2023-11-02T13:16:51.829Z,1.30
2023-11-02T13:19:20.877Z,0.80
2023-11-02T13:21:51.544Z,1.10
2023-11-02T13:24:22.869Z,1.25
2023-11-02T13:26:50.924Z,2.08
2023-11-02T13:29:20.165Z,1.30
2023-11-02T13:31:48.035Z,2.15
2023-11-02T13:34:16.136Z,2.05
2023-11-02T13:36:45.533Z,1.80
2023-11-02T13:39:14.315Z,1.45
2023-11-02T13:41:42.807Z,1.77
2023-11-02T13:44:10.660Z,1.48
2023-11-02T13:46:40.081Z,2.35
2023-11-02T13:49:08.356Z,0.90
2023-11-02T13:51:37.954Z,1.10
2023-11-02T13:54:06.237Z,1.55
2023-11-02T13:56:34.216Z,1.77
2023-11-02T13:59:02.051Z,1.45
2023-11-02T14:01:30.041Z,1.98
2023-11-02T14:03:59.458Z,1.40
2023-11-02T14:06:27.728Z,1.58
2023-11-02T14:08:55.570Z,1.58
2023-11-02T14:11:23.553Z,1.20
2023-11-02T14:13:51.345Z,0.98
2023-11-02T14:16:19.307Z,1.95
2023-11-02T14:18:47.500Z,1.42
2023-11-02T14:21:16.814Z,1.63
2023-11-02T14:23:44.678Z,1.73
2023-11-02T14:26:12.511Z,1.67
2023-11-02T14:28:40.391Z,1.20
2023-11-02T14:31:09.712Z,1.60
2023-11-02T14:33:37.818Z,1.30
2023-11-02T14:36:08.394Z,1.80
2023-11-02T14:38:37.614Z,2.00
2023-11-02T14:41:06.590Z,1.23
2023-11-02T14:43:36.938Z,1.85
2023-11-02T14:46:06.208Z,1.38
2023-11-02T14:48:34.970Z,1.58
2023-11-02T14:51:02.989Z,1.35
2023-11-02T14:53:30.802Z,1.50
2023-11-02T14:56:00.215Z,1.77
2023-11-02T14:58:28.021Z,1.50
2023-11-02T15:00:55.944Z,1.98
2023-11-02T15:03:24.269Z,1.67
2023-11-02T15:05:52.274Z,1.48
2023-11-02T15:08:20.315Z,1.90
2023-11-02T15:10:48.104Z,1.45
2023-11-02T15:13:17.399Z,1.70
2023-11-02T15:15:45.321Z,1.85
2023-11-02T15:18:13.136Z,1.23
2023-11-02T15:20:40.949Z,2.17
2023-11-02T15:23:08.750Z,1.23
2023-11-02T15:25:36.944Z,1.10
2023-11-02T15:28:05.690Z,1.58
2023-11-02T15:30:35.100Z,1.63
2023-11-02T15:33:02.911Z,1.48
2023-11-02T15:35:31.225Z,1.27
2023-11-02T15:37:59.057Z,1.65
2023-11-02T15:40:26.948Z,1.95
2023-11-02T15:42:55.186Z,1.15
2023-11-02T15:45:23.016Z,2.00
2023-11-02T15:47:52.520Z,1.95
2023-11-02T15:50:20.464Z,0.55
2023-11-02T15:52:48.332Z,1.45
2023-11-02T15:55:16.269Z,1.77
2023-11-02T15:57:45.207Z,1.15
2023-11-02T16:00:17.845Z,1.35
2023-11-02T16:02:48.455Z,1.15
2023-11-02T16:05:18.722Z,1.27
2023-11-02T16:07:47.165Z,1.42
2023-11-02T16:10:15.461Z,1.05
2023-11-02T16:12:43.790Z,1.67
2023-11-02T16:15:12.812Z,1.38
2023-11-02T16:17:41.388Z,1.85
2023-11-02T16:20:11.298Z,1.95
2023-11-02T16:22:40.896Z,1.95
2023-11-02T16:25:09.009Z,1.60
2023-11-02T16:27:37.185Z,1.58
2023-11-02T16:30:07.579Z,1.80
2023-11-02T16:32:36.094Z,1.88
2023-11-02T16:35:12.579Z,1.33
2023-11-02T16:37:54.925Z,1.52
2023-11-02T16:40:22.849Z,0.98
2023-11-02T16:42:50.745Z,1.20
2023-11-02T16:45:18.662Z,1.00
2023-11-02T16:47:46.659Z,1.00
2023-11-02T16:50:18.249Z,1.00
2023-11-02T16:52:46.257Z,1.60
2023-11-02T16:55:16.313Z,1.10
2023-11-02T16:57:44.637Z,1.27
2023-11-02T17:00:14.140Z,0.95
2023-11-02T17:02:41.969Z,1.15
2023-11-02T17:05:10.011Z,1.30
2023-11-02T17:07:37.969Z,1.15
2023-11-02T17:10:07.891Z,1.27
2023-11-02T17:12:37.089Z,1.27
2023-11-02T17:15:08.756Z,0.98
2023-11-02T17:17:37.263Z,1.17
2023-11-02T17:20:05.597Z,1.38
2023-11-02T17:22:33.373Z,1.20
2023-11-02T17:25:02.098Z,1.20
2023-11-02T17:27:30.287Z,1.00
2023-11-02T17:29:59.387Z,1.25
2023-11-02T17:32:27.315Z,1.33
2023-11-02T17:34:55.271Z,0.98
2023-11-02T17:37:23.118Z,1.60
2023-11-02T17:39:51.158Z,1.10
2023-11-02T17:42:23.866Z,1.00
2023-11-02T17:44:52.786Z,0.85
2023-11-02T17:47:21.933Z,1.13
2023-11-02T17:49:49.880Z,1.13
2023-11-02T17:52:17.810Z,1.40
2023-11-02T17:54:45.767Z,1.02
2023-11-02T17:57:13.531Z,1.20
2023-11-02T17:59:41.298Z,1.05
2023-11-02T18:02:09.094Z,1.50
2023-11-02T18:04:38.560Z,1.30
2023-11-02T18:07:06.580Z,1.02
2023-11-02T18:09:34.884Z,1.25
2023-11-02T18:12:02.671Z,1.23
2023-11-02T18:14:31.213Z,0.98
2023-11-02T18:16:58.965Z,1.60
2023-11-02T18:19:26.800Z,0.95
2023-11-02T18:21:56.233Z,1.50
2023-11-02T18:24:24.051Z,1.63
2023-11-02T18:26:51.911Z,1.58
2023-11-02T18:29:19.740Z,1.60
2023-11-02T18:31:47.629Z,1.70
2023-11-02T18:34:15.853Z,1.50
2023-11-02T18:36:44.240Z,1.13
2023-11-02T18:39:13.573Z,1.40
2023-11-02T18:41:41.825Z,1.85
2023-11-02T18:44:09.653Z,1.30
2023-11-02T18:46:37.502Z,1.30
2023-11-02T18:49:06.995Z,1.30
2023-11-02T18:51:36.197Z,1.50
2023-11-02T18:54:04.380Z,1.20
2023-11-02T18:56:33.772Z,1.10
2023-11-02T18:59:01.555Z,1.38
2023-11-02T19:01:30.460Z,1.35
2023-11-02T19:03:58.284Z,1.50
2023-11-02T19:06:29.836Z,2.08
2023-11-02T19:08:57.627Z,1.13
2023-11-02T19:11:25.682Z,1.40
2023-11-02T19:13:57.037Z,1.35
2023-11-02T19:16:24.879Z,1.17
2023-11-02T19:18:54.078Z,1.48
2023-11-02T19:21:22.068Z,1.00
2023-11-02T19:23:49.887Z,0.98
2023-11-02T19:26:18.120Z,1.67
2023-11-02T19:28:45.836Z,1.40
2023-11-02T19:31:15.085Z,1.60
2023-11-02T19:33:42.992Z,1.58
2023-11-02T19:36:11.940Z,1.58
2023-11-02T19:38:39.705Z,1.58
2023-11-02T19:41:07.613Z,1.73
2023-11-02T19:43:35.389Z,1.30
2023-11-02T19:46:03.412Z,1.35
2023-11-02T19:48:31.680Z,1.77
2023-11-02T19:50:59.507Z,1.10
2023-11-02T19:53:27.345Z,1.20
2023-11-02T19:55:55.231Z,1.30
2023-11-02T19:58:24.795Z,1.33
2023-11-02T20:00:53.891Z,1.77
2023-11-02T20:03:21.877Z,1.30
2023-11-02T20:05:51.362Z,1.15
2023-11-02T20:08:19.308Z,1.50
2023-11-02T20:10:47.597Z,0.85
2023-11-02T20:13:15.449Z,1.17
2023-11-02T20:15:43.249Z,1.38
2023-11-02T20:18:11.039Z,1.70
2023-11-02T20:20:38.867Z,1.05
2023-11-02T20:23:08.773Z,0.93
2023-11-02T20:25:37.309Z,0.90
2023-11-02T20:28:05.609Z,0.95
2023-11-02T20:30:33.485Z,0.98
2023-11-02T20:33:01.282Z,0.60
2023-11-02T20:35:29.110Z,1.40
2023-11-02T20:37:57.091Z,0.70
2023-11-02T20:40:26.282Z,0.80
2023-11-02T20:42:54.101Z,1.08
2023-11-02T20:45:22.043Z,1.10
2023-11-02T20:47:50.027Z,1.08
2023-11-02T20:50:18.365Z,1.10
2023-11-02T20:52:46.463Z,0.85
2023-11-02T20:55:14.835Z,1.00
2023-11-02T20:57:44.202Z,0.88
2023-11-02T21:00:15.403Z,0.98
2023-11-02T21:02:43.210Z,1.20
2023-11-02T21:05:14.183Z,1.20
2023-11-02T21:07:42.696Z,1.52
2023-11-02T21:10:11.036Z,0.88
2023-11-02T21:12:38.894Z,1.30
2023-11-02T21:15:10.017Z,1.33
2023-11-02T21:17:37.903Z,1.40
2023-11-02T21:20:08.456Z,1.55
2023-11-02T21:22:36.708Z,1.55
2023-11-02T21:25:06.313Z,1.25
2023-11-02T21:27:34.249Z,2.15
2023-11-02T21:30:02.245Z,1.33
2023-11-02T21:32:31.449Z,1.50
2023-11-02T21:34:59.232Z,0.98
2023-11-02T21:37:27.228Z,1.10
2023-11-02T21:39:55.137Z,0.98
2023-11-02T21:42:22.931Z,1.05
2023-11-02T21:44:50.805Z,1.00
2023-11-02T21:47:18.769Z,1.13
2023-11-02T21:49:48.509Z,1.10
2023-11-02T21:52:16.320Z,1.25
2023-11-02T21:54:44.143Z,1.60
2023-11-02T21:57:12.207Z,1.33
2023-11-02T21:59:40.875Z,1.00
2023-11-02T22:02:08.605Z,0.90
2023-11-02T22:04:37.846Z,1.13
2023-11-02T22:07:07.448Z,1.30
2023-11-02T22:09:36.343Z,1.05
2023-11-02T22:12:04.770Z,1.73
2023-11-02T22:14:32.675Z,2.15
2023-11-02T22:17:00.566Z,1.20
2023-11-02T22:19:28.434Z,0.93
2023-11-02T22:21:56.331Z,1.00
2023-11-02T22:24:25.690Z,0.70
2023-11-02T22:26:53.601Z,1.08
2023-11-02T22:29:21.433Z,0.90
2023-11-02T22:31:49.565Z,0.75
2023-11-02T22:34:17.451Z,0.90
2023-11-02T22:36:47.255Z,0.68
2023-11-02T22:39:16.762Z,0.90
2023-11-02T22:41:47.031Z,0.80
2023-11-02T22:44:14.791Z,0.75
2023-11-02T22:46:42.758Z,0.82
2023-11-02T22:49:12.412Z,0.60
2023-11-02T22:51:40.655Z,0.30
2023-11-02T22:54:08.830Z,0.20
2023-11-02T22:56:36.689Z,0.30
2023-11-02T22:59:06.764Z,0.38
2023-11-02T23:01:34.777Z,0.60
2023-11-02T23:04:03.886Z,0.50
2023-11-02T23:06:31.834Z,0.40
2023-11-02T23:08:59.800Z,0.17
2023-11-02T23:11:27.578Z,0.20
2023-11-02T23:13:55.342Z,0.30
2023-11-02T23:16:24.578Z,0.40
2023-11-02T23:18:52.688Z,0.30
2023-11-02T23:21:20.486Z,0.40
2023-11-02T23:23:48.277Z,0.40
2023-11-02T23:26:16.099Z,0.45
2023-11-02T23:28:48.234Z,0.55
2023-11-02T23:31:21.002Z,0.30
2023-11-02T23:33:50.308Z,0.35
2023-11-02T23:36:26.893Z,0.50
2023-11-02T23:38:55.302Z,0.20
2023-11-02T23:41:23.285Z,0.28
2023-11-02T23:43:51.321Z,0.30
2023-11-02T23:46:19.137Z,0.43
2023-11-02T23:48:47.120Z,0.22
2023-11-02T23:51:16.337Z,0.40
2023-11-02T23:53:44.158Z,0.17
2023-11-02T23:56:11.945Z,0.10
2023-11-02T23:58:39.813Z,0.30
